Time;durP1;ratioP1;P1;durP2;ratioP2;P2;SDS_P1;SDS_P2;PMS_P1;PMS_P2;Temp;Humidity;BMP_temperature;BMP_pressure;BME280_temperature;BME280_humidity;BME280_pressure;Samples;Min_cycle;Max_cycle;Signal;HPM_P1;HPM_P2
2021/07/14 00:01:27;;;;;;;8.05;7.00;;;;;;;31.69;28.33;94369.47;5055282;28;20045;-52
2021/07/14 00:03:54;;;;;;;8.02;7.32;;;;;;;31.88;28.23;94371.38;5055256;28;20052;-51
2021/07/14 00:06:41;;;;;;;6.82;6.22;;;;;;;32.16;27.60;94364.50;5040722;28;20365;-52
2021/07/14 00:09:09;;;;;;;8.00;7.20;;;;;;;31.88;27.96;94370.59;5054626;28;20059;-52
2021/07/14 00:11:44;;;;;;;7.50;6.80;;;;;;;32.24;27.53;94362.38;5055070;28;20067;-50
2021/07/14 00:22:14;;;;;;;8.43;6.78;;;;;;;31.64;27.87;94378.06;5049569;28;20056;-51
2021/07/14 00:24:41;;;;;;;7.40;6.72;;;;;;;31.88;26.92;94374.06;5053610;28;20051;-50
2021/07/14 00:27:10;;;;;;;7.32;6.65;;;;;;;31.71;27.32;94364.44;5054722;28;20053;-51
2021/07/14 00:29:48;;;;;;;7.35;6.68;;;;;;;32.22;26.48;94370.91;5037332;28;20041;-51
2021/07/14 00:32:16;;;;;;;7.00;6.25;;;;;;;31.95;27.06;94369.66;5054824;28;20041;-54
2021/07/14 00:34:43;;;;;;;7.25;6.55;;;;;;;32.57;25.93;94371.22;5054782;28;20041;-51
2021/07/14 00:37:10;;;;;;;7.40;6.57;;;;;;;31.92;27.09;94373.22;5054240;28;20049;-52
2021/07/14 00:39:37;;;;;;;7.93;6.38;;;;;;;32.01;27.26;94373.38;5054782;28;20071;-52
2021/07/14 00:42:26;;;;;;;7.10;6.50;;;;;;;31.87;27.52;94372.56;5054718;28;20041;-51
2021/07/14 00:44:57;;;;;;;7.45;6.43;;;;;;;32.27;27.00;94372.41;5054711;28;20044;-52
2021/07/14 00:47:28;;;;;;;7.20;6.50;;;;;;;31.88;27.31;94376.00;5054346;28;20053;-53
2021/07/14 00:49:55;;;;;;;7.07;6.38;;;;;;;32.15;26.40;94373.03;5053899;28;20569;-52
2021/07/14 00:52:23;;;;;;;7.55;6.82;;;;;;;32.04;26.77;94375.25;5054610;28;20056;-53
2021/07/14 00:54:51;;;;;;;7.50;6.80;;;;;;;32.16;26.89;94369.91;5053527;28;20053;-52
2021/07/14 00:57:20;;;;;;;6.70;6.07;;;;;;;32.32;26.64;94371.88;5053709;28;20045;-52
2021/07/14 00:59:48;;;;;;;8.00;6.85;;;;;;;32.46;26.62;94371.50;5053833;28;20060;-51
2021/07/14 01:02:15;;;;;;;8.80;6.50;;;;;;;32.36;26.86;94377.19;5054429;28;20494;-55
2021/07/14 01:04:47;;;;;;;6.78;6.18;;;;;;;32.12;27.63;94368.47;5052641;28;20447;-51
2021/07/14 01:07:24;;;;;;;7.03;6.18;;;;;;;31.79;27.76;94379.31;5052715;28;20052;-52
2021/07/14 01:10:07;;;;;;;9.35;6.60;;;;;;;32.26;27.04;94372.78;5053297;28;20056;-53
2021/07/14 01:12:56;;;;;;;6.88;6.28;;;;;;;32.17;27.18;94382.25;5054229;28;20045;-52
2021/07/14 01:15:27;;;;;;;7.15;6.55;;;;;;;31.98;27.92;94385.03;5053450;28;20049;-52
2021/07/14 01:18:07;;;;;;;6.53;5.95;;;;;;;31.89;27.79;94382.94;5053579;28;20047;-56
2021/07/14 01:20:49;;;;;;;6.80;5.97;;;;;;;31.95;28.13;94380.47;5053237;28;20045;-53
2021/07/14 01:23:39;;;;;;;7.15;6.47;;;;;;;32.07;27.93;94377.88;5054449;28;20051;-54
2021/07/14 01:26:31;;;;;;;7.13;6.47;;;;;;;31.19;28.91;94381.38;5033473;28;20061;-52
2021/07/14 01:29:00;;;;;;;6.82;6.22;;;;;;;31.41;28.57;94376.28;5054299;28;20057;-54
2021/07/14 01:31:27;;;;;;;6.80;6.18;;;;;;;32.08;27.86;94384.03;5035661;28;20075;-55
2021/07/14 01:34:00;;;;;;;7.50;6.78;;;;;;;30.83;29.36;94386.69;5053145;28;20352;-53
2021/07/14 01:36:29;;;;;;;7.15;6.35;;;;;;;32.11;27.80;94383.94;5053306;28;20045;-53
2021/07/14 01:38:58;;;;;;;7.47;6.78;;;;;;;32.00;27.93;94383.44;5035933;28;20106;-53
2021/07/14 01:41:26;;;;;;;7.00;6.32;;;;;;;31.79;28.11;94384.72;5053630;28;20380;-53
2021/07/14 01:43:57;;;;;;;7.18;6.57;;;;;;;32.20;27.75;94381.41;5056287;28;20049;-52
2021/07/14 01:46:28;;;;;;;7.30;6.70;;;;;;;31.79;28.38;94379.31;5056815;28;20045;-52
2021/07/14 01:48:57;;;;;;;7.22;6.63;;;;;;;31.54;28.65;94381.78;5057322;28;20056;-52
2021/07/14 01:51:25;;;;;;;7.78;6.55;;;;;;;31.45;28.42;94387.00;5057723;28;20048;-53
2021/07/14 01:53:52;;;;;;;7.65;7.05;;;;;;;31.29;28.98;94379.63;5056256;28;20052;-51
2021/07/14 01:56:20;;;;;;;8.90;7.55;;;;;;;31.02;28.77;94387.13;5041604;28;20053;-51
2021/07/14 01:58:48;;;;;;;9.18;7.35;;;;;;;31.51;28.04;94390.75;5036434;28;20471;-51
2021/07/14 02:01:19;;;;;;;8.55;7.57;;;;;;;31.15;28.88;94379.88;5040582;28;20056;-51
2021/07/14 02:06:34;;;;;;;7.85;7.15;;;;;;;31.56;28.49;94388.28;5057858;28;20459;-52
2021/07/14 02:09:01;;;;;;;8.20;7.40;;;;;;;31.46;28.55;94383.09;5056337;28;20049;-52
2021/07/14 02:11:29;;;;;;;8.05;7.30;;;;;;;31.64;28.00;94388.88;5055922;28;20048;-51
2021/07/14 02:13:56;;;;;;;8.38;7.60;;;;;;;31.49;28.52;94393.88;5055812;28;20056;-52
2021/07/14 02:16:24;;;;;;;7.68;6.97;;;;;;;31.72;28.10;94395.66;5056615;28;20052;-54
2021/07/14 02:18:56;;;;;;;8.70;6.88;;;;;;;31.10;29.17;94394.66;5057087;28;20359;-51
2021/07/14 02:21:24;;;;;;;8.50;7.55;;;;;;;31.31;28.79;94400.81;5056170;28;20410;-53
2021/07/14 02:23:51;;;;;;;10.18;7.38;;;;;;;31.36;28.77;94400.31;5056892;28;20045;-50
2021/07/14 02:26:18;;;;;;;8.27;7.47;;;;;;;31.26;28.64;94397.44;5057589;28;20076;-52
2021/07/14 02:28:45;;;;;;;8.25;7.40;;;;;;;31.59;28.29;94405.59;5057707;28;20061;-51
2021/07/14 02:31:12;;;;;;;9.25;7.68;;;;;;;31.46;28.92;94405.47;5057087;28;20052;-52
2021/07/14 02:33:39;;;;;;;8.48;7.45;;;;;;;31.49;28.83;94414.69;5057326;28;20041;-52
2021/07/14 02:36:10;;;;;;;7.68;6.97;;;;;;;31.14;29.32;94410.75;5057546;28;20048;-50
2021/07/14 02:38:40;;;;;;;7.80;7.10;;;;;;;30.90;29.65;94410.06;5056386;28;20044;-52
2021/07/14 02:41:13;;;;;;;7.95;7.15;;;;;;;31.54;28.64;94416.91;5056999;28;20447;-54
2021/07/14 02:43:49;;;;;;;7.72;6.88;;;;;;;30.95;29.65;94412.28;5057183;28;20056;-52
2021/07/14 02:46:23;;;;;;;9.65;7.35;;;;;;;30.81;29.67;94420.66;5056099;28;20059;-51
2021/07/14 02:48:57;;;;;;;7.68;6.85;;;;;;;30.97;29.51;94423.47;5057081;28;20057;-51
2021/07/14 02:51:25;;;;;;;8.02;7.22;;;;;;;31.07;29.20;94422.47;5056834;28;20356;-52
2021/07/14 02:53:55;;;;;;;7.45;6.63;;;;;;;30.79;29.74;94425.72;5054430;28;20056;-51
2021/07/14 02:56:23;;;;;;;9.55;7.15;;;;;;;30.82;29.63;94425.66;5055870;28;20055;-51
2021/07/14 02:59:05;;;;;;;8.00;7.20;;;;;;;31.01;29.19;94434.94;5035077;28;20068;-51
2021/07/14 03:01:34;;;;;;;8.25;7.40;;;;;;;31.01;29.25;94434.94;5040127;28;20083;-53
2021/07/14 03:04:01;;;;;;;9.18;7.18;;;;;;;31.06;29.32;94431.75;5054472;28;20053;-53
2021/07/14 03:06:33;;;;;;;7.82;7.03;;;;;;;30.96;29.70;94435.41;5055714;28;20049;-55
2021/07/14 03:09:05;;;;;;;11.68;6.93;;;;;;;30.90;29.70;94431.66;5054593;28;20056;-52
2021/07/14 03:11:40;;;;;;;7.75;6.95;;;;;;;31.02;29.45;94433.00;5056418;28;20064;-51
2021/07/14 03:14:10;;;;;;;10.20;7.47;;;;;;;30.78;29.64;94437.69;5056448;28;20055;-50
2021/07/14 03:16:38;;;;;;;8.48;7.18;;;;;;;30.63;29.83;94431.78;5056779;28;20040;-50
2021/07/14 03:19:05;;;;;;;9.82;7.00;;;;;;;30.94;29.17;94443.16;5054696;28;20056;-51
2021/07/14 03:21:34;;;;;;;8.23;7.15;;;;;;;30.25;30.23;94433.97;5056253;28;20045;-51
2021/07/14 03:24:04;;;;;;;8.02;7.30;;;;;;;30.58;29.52;94438.38;5054555;28;20756;-51
2021/07/14 03:26:32;;;;;;;8.85;7.43;;;;;;;30.96;29.15;94438.09;5056122;28;20061;-51
2021/07/14 03:29:00;;;;;;;7.97;7.20;;;;;;;30.72;29.45;94428.56;5055667;28;20044;-51
2021/07/14 03:31:29;;;;;;;7.85;7.15;;;;;;;30.53;30.04;94427.31;5055148;28;20052;-51
2021/07/14 03:33:57;;;;;;;9.25;7.00;;;;;;;30.51;30.00;94422.34;5054043;28;20056;-51
2021/07/14 03:36:24;;;;;;;8.32;7.53;;;;;;;31.08;29.01;94429.41;5055218;28;20059;-51
2021/07/14 03:38:53;;;;;;;11.52;7.60;;;;;;;30.56;29.62;94423.78;5055390;28;20056;-51
2021/07/14 03:41:21;;;;;;;8.02;7.20;;;;;;;30.93;29.33;94431.59;5054208;28;20049;-52
2021/07/14 03:43:49;;;;;;;8.00;7.20;;;;;;;31.08;29.37;94437.50;5054742;28;20048;-52
2021/07/14 03:46:17;;;;;;;8.20;7.20;;;;;;;31.02;29.34;94433.75;5054957;28;20048;-51
2021/07/14 03:48:44;;;;;;;8.85;7.53;;;;;;;31.37;29.39;94445.03;5054829;28;20053;-52
2021/07/14 03:51:12;;;;;;;8.10;7.28;;;;;;;31.13;29.41;94438.94;5054753;28;20067;-52
2021/07/14 03:53:39;;;;;;;9.45;7.43;;;;;;;30.80;30.03;94446.13;5054569;28;20049;-51
2021/07/14 03:56:06;;;;;;;8.02;7.22;;;;;;;30.95;29.67;94439.28;5037304;28;20048;-54
2021/07/14 03:58:34;;;;;;;9.07;7.93;;;;;;;31.16;29.64;94452.41;5054963;28;20053;-52
2021/07/14 04:01:01;;;;;;;8.40;7.38;;;;;;;30.65;29.87;94457.16;5055615;28;20060;-53
2021/07/14 04:03:29;;;;;;;9.52;7.80;;;;;;;31.34;29.17;94462.09;5054445;28;20041;-50
2021/07/14 04:06:01;;;;;;;8.68;7.85;;;;;;;31.22;29.53;94456.13;5053865;28;20052;-52
2021/07/14 04:08:49;;;;;;;8.32;7.53;;;;;;;30.87;30.26;94451.38;5055488;28;20049;-51
2021/07/14 04:11:16;;;;;;;8.85;7.95;;;;;;;31.39;29.39;94448.09;5054245;28;20056;-51
2021/07/14 04:13:44;;;;;;;9.02;7.32;;;;;;;31.17;30.19;94448.50;5054010;28;20439;-50
2021/07/14 04:16:12;;;;;;;8.93;7.63;;;;;;;31.43;29.64;94454.19;5054521;28;20078;-51
2021/07/14 04:18:40;;;;;;;8.35;7.50;;;;;;;31.41;29.21;94453.84;5054554;28;20049;-51
2021/07/14 04:21:07;;;;;;;9.82;8.02;;;;;;;30.99;30.23;94458.88;5054462;28;20041;-54
2021/07/14 04:23:34;;;;;;;8.35;7.40;;;;;;;31.10;29.73;94458.66;5054376;28;20045;-50
2021/07/14 04:26:01;;;;;;;10.05;7.70;;;;;;;31.19;29.22;94456.97;5053690;28;20061;-50
2021/07/14 04:28:28;;;;;;;7.72;6.75;;;;;;;31.29;29.94;94450.59;5055430;28;20049;-50
2021/07/14 04:30:55;;;;;;;7.90;7.20;;;;;;;31.04;31.25;94444.91;5054386;28;20324;-55
2021/07/14 04:33:22;;;;;;;11.00;7.80;;;;;;;31.31;29.96;94444.78;5051143;28;20053;-52
2021/07/14 04:35:50;;;;;;;14.30;7.93;;;;;;;31.19;30.08;94456.19;5048768;28;20052;-53
2021/07/14 04:38:17;;;;;;;9.45;7.70;;;;;;;30.97;30.63;94461.25;5055032;28;20044;-51
2021/07/14 04:40:44;;;;;;;9.30;8.10;;;;;;;30.62;32.09;94462.63;5053943;28;20052;-52
2021/07/14 04:43:11;;;;;;;8.65;7.80;;;;;;;31.40;30.38;94465.81;5054014;28;20041;-51
2021/07/14 04:45:39;;;;;;;11.95;8.15;;;;;;;31.40;29.82;94476.63;5054636;28;20395;-50
2021/07/14 04:48:07;;;;;;;10.95;8.32;;;;;;;30.94;30.74;94479.00;5053765;28;20490;-52
2021/07/14 04:50:37;;;;;;;10.10;7.65;;;;;;;31.22;30.63;94477.72;5054056;28;20124;-52
2021/07/14 04:53:04;;;;;;;9.88;8.52;;;;;;;31.25;30.22;94481.56;5054514;28;20375;-52
2021/07/14 04:55:31;;;;;;;10.23;8.27;;;;;;;31.47;30.75;94488.03;5053985;28;20495;-54
2021/07/14 04:57:58;;;;;;;10.65;8.70;;;;;;;31.19;30.91;94489.34;5054620;28;20045;-52
2021/07/14 05:00:25;;;;;;;9.70;8.13;;;;;;;31.51;30.30;94488.75;5053583;28;20051;-51
2021/07/14 05:02:52;;;;;;;9.50;8.00;;;;;;;31.70;29.71;94489.88;5051673;28;20053;-51
2021/07/14 05:05:19;;;;;;;12.50;9.05;;;;;;;31.75;29.59;94497.53;5043440;28;20047;-50
2021/07/14 05:07:47;;;;;;;10.02;8.38;;;;;;;31.49;30.60;94503.81;5054378;28;20041;-51
2021/07/14 05:10:14;;;;;;;10.05;8.35;;;;;;;32.25;29.09;94501.81;5036890;28;20049;-51
2021/07/14 05:12:41;;;;;;;9.02;8.23;;;;;;;31.89;29.76;94499.91;5054127;28;20045;-53
2021/07/14 05:15:09;;;;;;;9.15;8.25;;;;;;;32.14;28.64;94502.06;5054145;28;20360;-52
2021/07/14 05:17:36;;;;;;;11.27;8.45;;;;;;;32.00;29.25;94498.91;5034563;28;20068;-52
2021/07/14 05:20:05;;;;;;;9.07;8.18;;;;;;;32.29;28.20;94496.38;5034194;28;20053;-54
2021/07/14 05:22:32;;;;;;;12.95;8.75;;;;;;;32.31;28.95;94494.75;5042062;28;20075;-52
2021/07/14 05:25:00;;;;;;;14.15;8.13;;;;;;;32.29;28.37;94486.31;5053055;28;20057;-51
2021/07/14 05:27:27;;;;;;;10.45;8.32;;;;;;;32.20;28.34;94494.22;5054687;28;20053;-52
2021/07/14 05:29:54;;;;;;;9.48;8.02;;;;;;;32.19;28.42;94498.84;5053315;28;20364;-52
2021/07/14 05:32:21;;;;;;;9.75;8.25;;;;;;;32.72;28.18;94487.97;5054085;28;20067;-52
2021/07/14 05:34:48;;;;;;;10.40;8.48;;;;;;;32.90;27.47;94496.41;5053494;28;20045;-53
2021/07/14 05:37:15;;;;;;;9.73;8.85;;;;;;;32.78;27.81;94488.94;5033420;28;20056;-51
2021/07/14 05:39:42;;;;;;;9.13;8.18;;;;;;;32.88;27.87;94498.78;5016569;28;20053;-52
2021/07/14 05:42:09;;;;;;;11.15;8.55;;;;;;;32.68;27.74;94500.81;5037894;28;20036;-53
2021/07/14 05:44:37;;;;;;;9.25;8.20;;;;;;;32.91;28.05;94503.34;5053481;28;20045;-53
2021/07/14 05:47:04;;;;;;;9.80;8.45;;;;;;;32.94;28.14;94502.50;5053138;28;20044;-51
2021/07/14 05:49:31;;;;;;;11.18;8.10;;;;;;;33.18;27.46;94500.31;5046366;28;20049;-52
2021/07/14 05:51:58;;;;;;;9.18;8.25;;;;;;;33.36;27.24;94500.63;5035405;28;20045;-50
2021/07/14 05:54:25;;;;;;;9.20;8.27;;;;;;;33.53;27.15;94504.00;5053740;28;20056;-50
2021/07/14 05:56:52;;;;;;;9.88;7.75;;;;;;;33.40;27.38;94505.94;5053803;28;20056;-52
2021/07/14 05:59:19;;;;;;;8.23;7.53;;;;;;;33.88;27.41;94501.50;5053466;28;20060;-52
2021/07/14 06:01:47;;;;;;;19.25;7.90;;;;;;;34.23;26.58;94505.09;5053612;28;20080;-52
2021/07/14 06:04:14;;;;;;;8.70;7.90;;;;;;;34.30;26.82;94511.03;5039092;28;20448;-55
2021/07/14 06:06:43;;;;;;;11.00;7.93;;;;;;;34.16;27.06;94508.78;5052089;28;20053;-52
2021/07/14 06:09:11;;;;;;;9.80;8.90;;;;;;;34.24;26.55;94507.34;5053783;28;20053;-53
2021/07/14 06:11:39;;;;;;;11.52;8.32;;;;;;;34.29;26.78;94514.94;5053504;28;20044;-53
2021/07/14 06:14:06;;;;;;;8.65;7.75;;;;;;;34.32;27.40;94507.88;5053529;28;20052;-53
2021/07/14 06:16:33;;;;;;;12.57;8.40;;;;;;;34.63;26.59;94505.41;5039025;28;20499;-52
2021/07/14 06:19:00;;;;;;;12.40;8.43;;;;;;;34.68;26.66;94501.38;5033770;28;20041;-53
2021/07/14 06:21:27;;;;;;;9.90;8.20;;;;;;;34.82;26.38;94501.63;5034246;28;20045;-53
2021/07/14 06:23:54;;;;;;;14.40;8.20;;;;;;;34.77;26.67;94510.34;5050469;28;20048;-53
2021/07/14 06:26:21;;;;;;;9.27;8.38;;;;;;;34.83;26.55;94508.56;5053659;28;20064;-53
2021/07/14 06:28:48;;;;;;;8.88;7.93;;;;;;;34.82;26.18;94512.50;5048359;28;20053;-53
2021/07/14 06:31:15;;;;;;;10.65;8.25;;;;;;;35.12;26.52;94507.63;5037849;28;20053;-53
2021/07/14 06:33:42;;;;;;;12.68;8.85;;;;;;;35.46;25.88;94513.06;5051582;28;20045;-53
2021/07/14 06:36:09;;;;;;;9.18;7.70;;;;;;;35.28;26.09;94515.63;5057095;28;20052;-52
2021/07/14 06:38:36;;;;;;;10.02;8.10;;;;;;;35.70;25.58;94501.72;5057338;28;20045;-53
2021/07/14 06:41:04;;;;;;;10.30;8.65;;;;;;;35.84;25.74;94506.66;5047738;28;20052;-54
2021/07/14 06:43:41;;;;;;;11.70;8.63;;;;;;;35.71;25.36;94508.69;5050338;28;20053;-54
2021/07/14 06:46:12;;;;;;;11.27;8.35;;;;;;;35.77;25.32;94515.06;5056899;28;20045;-55
2021/07/14 06:48:40;;;;;;;10.60;8.40;;;;;;;35.66;25.35;94511.97;5056396;28;20056;-54
2021/07/14 06:51:07;;;;;;;11.70;8.07;;;;;;;35.89;25.10;94506.06;5057273;28;20051;-52
2021/07/14 06:53:35;;;;;;;10.25;8.57;;;;;;;36.11;25.17;94504.06;5056774;28;20045;-56
2021/07/14 06:56:03;;;;;;;11.52;8.45;;;;;;;36.26;24.62;94500.78;5055176;28;20053;-52
2021/07/14 06:58:30;;;;;;;9.38;8.48;;;;;;;36.45;24.66;94505.13;5057024;28;20383;-54
2021/07/14 07:00:57;;;;;;;9.07;8.18;;;;;;;36.29;24.82;94502.59;5037561;28;20471;-54
2021/07/14 07:03:24;;;;;;;14.25;8.82;;;;;;;36.39;24.53;94498.72;5048343;28;20048;-54
2021/07/14 07:05:51;;;;;;;9.73;8.68;;;;;;;36.43;24.61;94504.78;5055359;28;20056;-55
2021/07/14 07:08:19;;;;;;;8.50;7.70;;;;;;;36.61;25.20;94504.81;5056642;28;20049;-55
2021/07/14 07:10:47;;;;;;;9.35;7.78;;;;;;;36.63;24.48;94496.97;5056142;28;20041;-53
2021/07/14 07:13:18;;;;;;;8.02;7.32;;;;;;;36.61;24.42;94491.22;5055983;28;20045;-54
2021/07/14 07:15:46;;;;;;;;;;;;;;;36.59;24.81;94493.63;5056677;28;20056;-51
2021/07/14 07:18:13;;;;;;;10.05;8.45;;;;;;;36.70;24.20;94490.50;5056549;28;19920;-52
2021/07/14 07:20:41;;;;;;;11.05;7.80;;;;;;;36.93;24.20;94494.59;5055718;28;20056;-54
2021/07/14 07:23:10;;;;;;;10.35;7.95;;;;;;;36.93;24.32;94491.88;5056263;28;20048;-53
2021/07/14 07:25:38;;;;;;;10.60;8.05;;;;;;;37.23;23.81;94487.50;5052148;28;20049;-55
2021/07/14 07:28:12;;;;;;;9.38;7.57;;;;;;;37.23;23.47;94485.53;5055816;28;20059;-53
2021/07/14 07:30:40;;;;;;;8.18;7.45;;;;;;;37.31;24.01;94484.03;5056129;28;20048;-57
2021/07/14 07:33:07;;;;;;;11.32;8.63;;;;;;;37.43;23.97;94490.50;5056085;28;20048;-53
2021/07/14 07:35:34;;;;;;;9.45;8.45;;;;;;;37.53;23.21;94481.13;5053197;28;20048;-55
2021/07/14 07:38:02;;;;;;;26.08;8.40;;;;;;;37.64;24.02;94475.19;5035687;28;20056;-54
2021/07/14 07:40:30;;;;;;;10.00;7.80;;;;;;;37.81;23.37;94483.81;5034487;28;20444;-55
2021/07/14 07:42:58;;;;;;;14.07;8.32;;;;;;;37.87;23.48;94477.25;5041892;28;20053;-53
2021/07/14 07:45:25;;;;;;;9.40;7.90;;;;;;;37.89;23.47;94480.28;5055105;28;20045;-59
2021/07/14 07:47:52;;;;;;;10.07;8.40;;;;;;;38.10;23.25;94466.88;5055785;28;20049;-55
2021/07/14 07:50:19;;;;;;;10.55;8.70;;;;;;;37.87;22.93;94476.50;5055952;28;20424;-53
2021/07/14 07:52:46;;;;;;;9.38;7.97;;;;;;;38.19;22.42;94477.75;5055767;28;20056;-53
2021/07/14 07:55:14;;;;;;;12.82;8.25;;;;;;;38.03;22.49;94461.75;5055138;28;20052;-54
2021/07/14 07:57:42;;;;;;;9.45;8.25;;;;;;;38.30;23.03;94472.56;5055772;28;20049;-53
2021/07/14 08:00:17;;;;;;;14.48;8.35;;;;;;;38.36;23.18;94467.97;5048254;28;20052;-53
2021/07/14 08:02:44;;;;;;;12.43;8.18;;;;;;;38.51;23.06;94463.31;5039784;28;20059;-54
2021/07/14 08:05:11;;;;;;;9.30;8.20;;;;;;;38.51;22.32;94468.03;5054757;28;20056;-55
2021/07/14 08:07:38;;;;;;;11.90;7.82;;;;;;;38.54;22.48;94462.41;5055088;28;20071;-53
2021/07/14 08:10:08;;;;;;;10.38;7.82;;;;;;;38.43;22.27;94467.63;5055576;28;20041;-53
2021/07/14 08:12:35;;;;;;;18.35;16.42;;;;;;;38.72;21.60;94471.72;5055579;28;20045;-53
2021/07/14 08:15:04;;;;;;;11.38;10.13;;;;;;;38.61;22.59;94464.03;5054271;28;20045;-54
2021/07/14 08:17:31;;;;;;;10.27;9.10;;;;;;;39.08;21.13;94460.53;5038287;28;20045;-53
2021/07/14 08:19:58;;;;;;;9.45;8.43;;;;;;;38.85;21.35;94458.56;5034552;28;20053;-54
2021/07/14 08:22:25;;;;;;;11.43;8.63;;;;;;;39.07;21.57;94455.53;5035306;28;20681;-55
2021/07/14 08:24:52;;;;;;;9.18;8.30;;;;;;;38.72;21.38;94452.59;5054339;28;20059;-53
2021/07/14 08:27:24;;;;;;;9.48;7.90;;;;;;;38.98;21.56;94450.88;5054137;28;20048;-53
2021/07/14 08:29:54;;;;;;;10.30;8.40;;;;;;;38.95;21.65;94453.78;5054210;28;20052;-54
2021/07/14 08:32:21;;;;;;;8.35;7.50;;;;;;;39.26;21.08;94453.38;5055024;28;20466;-54
2021/07/14 08:34:48;;;;;;;8.35;7.53;;;;;;;39.39;20.73;94451.13;5055118;28;20052;-55
2021/07/14 08:37:15;;;;;;;9.13;7.68;;;;;;;39.15;20.73;94453.94;5054898;28;20459;-55
2021/07/14 08:39:42;;;;;;;8.27;7.07;;;;;;;39.28;20.47;94450.94;5054765;28;20044;-53
2021/07/14 08:42:11;;;;;;;8.10;7.00;;;;;;;39.23;20.74;94448.84;5054921;28;20044;-55
2021/07/14 08:44:38;;;;;;;8.82;7.40;;;;;;;39.51;20.77;94452.84;5052812;28;20391;-53
2021/07/14 08:47:08;;;;;;;7.72;7.00;;;;;;;39.39;20.64;94456.59;5053260;28;20079;-54
2021/07/14 08:49:38;;;;;;;7.93;7.13;;;;;;;39.13;20.21;94451.69;5054701;28;20415;-55
2021/07/14 08:52:06;;;;;;;10.52;6.93;;;;;;;39.20;20.10;94450.56;5053389;28;20372;-55
2021/07/14 08:54:35;;;;;;;8.20;7.32;;;;;;;39.37;19.64;94442.66;5053951;28;20044;-54
2021/07/14 08:57:02;;;;;;;7.70;6.70;;;;;;;39.44;19.96;94442.28;5036996;28;20049;-53
2021/07/14 08:59:30;;;;;;;7.95;7.13;;;;;;;39.23;19.54;94454.31;5054552;28;20045;-56
2021/07/14 09:01:57;;;;;;;7.53;6.68;;;;;;;39.36;19.40;94438.41;5054511;28;20052;-53
2021/07/14 09:04:24;;;;;;;6.97;6.20;;;;;;;39.49;19.59;94441.59;5054409;28;20068;-56
2021/07/14 09:06:51;;;;;;;7.82;7.10;;;;;;;39.43;19.49;94440.75;5054384;28;20052;-54
2021/07/14 09:09:18;;;;;;;8.00;6.97;;;;;;;39.60;19.35;94444.56;5049893;28;20056;-56
2021/07/14 09:11:59;;;;;;;7.50;6.90;;;;;;;39.60;19.35;94444.56;5033941;28;20049;-54
2021/07/14 09:14:32;;;;;;;;;;;;;;;39.17;18.89;94435.09;5050924;28;20045;-54
2021/07/14 09:17:01;;;;;;;8.50;6.85;;;;;;;39.39;19.05;94440.97;5053555;28;19919;-54
2021/07/14 09:19:29;;;;;;;8.23;7.43;;;;;;;39.41;19.04;94440.47;5054169;28;20037;-53
2021/07/14 09:21:58;;;;;;;8.07;7.30;;;;;;;39.30;19.18;94432.06;5053585;28;20041;-54
2021/07/14 09:24:26;;;;;;;9.13;7.15;;;;;;;39.56;19.07;94426.81;5053629;28;20052;-53
2021/07/14 09:26:55;;;;;;;7.93;7.13;;;;;;;39.68;19.49;94429.28;5053908;28;20054;-54
2021/07/14 09:29:23;;;;;;;8.25;7.45;;;;;;;39.69;19.39;94433.50;5036410;28;20052;-54
2021/07/14 09:31:51;;;;;;;7.68;6.85;;;;;;;39.50;19.19;94434.91;5054179;28;20049;-55
2021/07/14 09:34:26;;;;;;;8.48;7.10;;;;;;;39.59;18.74;94437.59;5054031;28;20045;-56
2021/07/14 09:36:57;;;;;;;7.72;6.93;;;;;;;39.80;18.43;94426.69;5053670;28;20052;-55
2021/07/14 09:39:30;;;;;;;7.55;6.60;;;;;;;39.45;18.74;94432.84;5053964;28;20037;-55
2021/07/14 09:42:06;;;;;;;7.40;6.80;;;;;;;39.66;18.41;94437.19;5053250;28;20720;-58
2021/07/14 09:44:33;;;;;;;7.72;6.60;;;;;;;39.89;18.67;94434.81;5053220;28;20052;-54
2021/07/14 09:47:14;;;;;;;7.78;6.95;;;;;;;39.72;18.55;94429.84;5054295;28;20040;-54
2021/07/14 09:49:42;;;;;;;7.68;6.88;;;;;;;39.63;18.76;94440.88;5053594;28;20060;-53
2021/07/14 09:52:15;;;;;;;7.38;6.70;;;;;;;39.69;18.49;94436.25;5052904;28;20478;-53
2021/07/14 09:54:42;;;;;;;7.90;7.10;;;;;;;39.56;18.57;94438.53;5053410;28;20052;-53
2021/07/14 09:57:17;;;;;;;8.93;7.82;;;;;;;39.82;18.55;94443.38;5054030;28;20087;-55
2021/07/14 09:59:46;;;;;;;7.22;6.68;;;;;;;39.86;18.82;94433.03;5053491;28;20041;-53
2021/07/14 10:02:15;;;;;;;8.40;7.25;;;;;;;39.80;18.65;94430.19;5054007;28;20486;-54
2021/07/14 10:04:44;;;;;;;7.65;6.97;;;;;;;39.84;19.28;94416.34;5057364;28;20049;-53
2021/07/14 10:07:18;;;;;;;7.70;7.10;;;;;;;39.97;18.73;94422.25;5057963;28;20436;-53
2021/07/14 10:09:46;;;;;;;7.43;6.72;;;;;;;40.12;18.71;94423.00;5056857;28;20285;-52
2021/07/14 10:12:35;;;;;;;8.50;6.82;;;;;;;39.97;18.35;94416.78;5056563;28;20052;-54
2021/07/14 10:15:08;;;;;;;7.15;6.45;;;;;;;40.07;18.39;94416.19;5057694;28;20045;-54
2021/07/14 10:17:41;;;;;;;7.60;6.90;;;;;;;40.04;18.28;94416.38;5057850;28;20478;-54
2021/07/14 10:20:32;;;;;;;7.53;6.88;;;;;;;39.98;18.18;94418.31;5057379;28;20047;-56
2021/07/14 10:22:59;;;;;;;;;;;;;;;39.77;18.45;94407.28;5057924;28;20056;-55
2021/07/14 10:25:28;;;;;;;7.32;6.72;;;;;;;39.78;18.57;94403.31;5056804;28;20235;-53
2021/07/14 10:27:56;;;;;;;7.47;6.75;;;;;;;39.93;18.28;94402.53;5057401;28;20045;-56
2021/07/14 10:30:24;;;;;;;8.35;7.28;;;;;;;40.01;18.56;94406.41;5057015;28;20057;-53
2021/07/14 10:32:52;;;;;;;9.00;7.53;;;;;;;39.52;18.67;94405.13;5057315;28;20060;-56
2021/07/14 10:35:22;;;;;;;8.10;7.32;;;;;;;39.78;18.20;94400.56;5057399;28;20477;-54
2021/07/14 10:37:54;;;;;;;7.68;6.97;;;;;;;39.77;18.61;94404.53;5057589;28;20473;-56
2021/07/14 10:40:23;;;;;;;9.02;8.10;;;;;;;39.70;18.76;94399.47;5039434;28;20451;-53
2021/07/14 10:42:52;;;;;;;7.60;6.90;;;;;;;39.84;18.36;94397.19;5056456;28;20482;-52
2021/07/14 10:45:20;;;;;;;7.32;6.63;;;;;;;39.69;18.35;94394.47;5057390;28;20041;-52
2021/07/14 10:47:49;;;;;;;7.90;7.15;;;;;;;39.83;18.33;94390.22;5057236;28;20056;-53
2021/07/14 10:50:18;;;;;;;7.90;7.22;;;;;;;39.82;18.58;94396.88;5055909;28;20359;-57
2021/07/14 10:52:46;;;;;;;7.50;6.68;;;;;;;39.97;17.98;94386.69;5057094;28;20370;-54
2021/07/14 10:55:17;;;;;;;7.47;6.50;;;;;;;39.55;18.22;94398.72;5055044;28;20049;-53
2021/07/14 10:57:44;;;;;;;7.45;6.70;;;;;;;39.38;18.21;94389.47;5038334;28;20049;-53
2021/07/14 11:00:12;;;;;;;7.18;6.55;;;;;;;39.60;17.76;94387.13;5038381;28;20040;-55
2021/07/14 11:02:41;;;;;;;6.55;6.00;;;;;;;39.68;17.98;94385.50;5056176;28;20049;-54
2021/07/14 11:05:10;;;;;;;9.38;6.40;;;;;;;39.21;18.41;94385.72;5056717;28;20052;-53
2021/07/14 11:07:45;;;;;;;7.32;6.72;;;;;;;39.72;17.68;94382.56;5055820;28;20048;-53
2021/07/14 11:10:31;;;;;;;7.53;6.93;;;;;;;39.77;17.50;94388.13;5056298;28;20045;-53
2021/07/14 11:13:18;;;;;;;6.80;6.20;;;;;;;39.45;17.77;94380.88;5055382;28;20045;-53
2021/07/14 11:15:46;;;;;;;7.70;6.53;;;;;;;39.48;17.43;94385.41;5056808;28;20045;-52
2021/07/14 11:18:33;;;;;;;7.47;6.07;;;;;;;39.34;17.62;94372.53;5055641;28;20479;-54
2021/07/14 11:21:00;;;;;;;6.70;6.20;;;;;;;39.89;17.57;94380.09;5056413;28;20049;-53
2021/07/14 11:23:29;;;;;;;7.00;6.43;;;;;;;39.67;17.40;94372.31;5055812;28;20447;-56
2021/07/14 11:26:00;;;;;;;6.97;6.30;;;;;;;39.48;17.09;94366.25;5055961;28;20052;-56
2021/07/14 11:28:29;;;;;;;6.70;6.10;;;;;;;39.52;17.07;94360.63;5055167;28;20056;-55
2021/07/14 11:31:08;;;;;;;6.55;6.05;;;;;;;39.61;17.12;94368.75;5056174;28;20053;-54
2021/07/14 11:33:37;;;;;;;7.22;5.88;;;;;;;39.53;16.76;94368.34;5055814;28;20048;-57
2021/07/14 11:36:09;;;;;;;6.35;5.70;;;;;;;39.53;16.80;94368.34;5055223;28;20051;-55
2021/07/14 11:38:53;;;;;;;6.60;6.07;;;;;;;39.50;16.91;94369.28;5055363;28;20052;-54
2021/07/14 11:41:30;;;;;;;8.50;6.32;;;;;;;39.56;16.78;94361.19;5055210;28;20053;-56
2021/07/14 11:43:57;;;;;;;5.95;5.53;;;;;;;39.59;17.10;94361.00;5054935;28;20056;-54
2021/07/14 11:46:30;;;;;;;7.38;5.97;;;;;;;39.77;16.91;94360.00;5056104;28;20049;-57
2021/07/14 11:49:07;;;;;;;6.05;5.55;;;;;;;39.66;16.86;94355.16;5055196;28;20056;-55
2021/07/14 11:51:39;;;;;;;7.47;6.00;;;;;;;39.65;16.92;94358.34;5054972;28;20049;-52
2021/07/14 11:54:25;;;;;;;6.85;6.25;;;;;;;39.48;16.55;94360.81;5054313;28;20459;-53